createdAt,value
2023-08-19T00:00:06.408Z,4.60
2023-08-19T00:05:08.345Z,3.83
2023-08-19T00:10:09.804Z,3.95
2023-08-19T00:15:11.279Z,4.00
2023-08-19T00:20:12.754Z,3.83
2023-08-19T00:25:14.103Z,4.28
2023-08-19T00:30:15.517Z,4.13
2023-08-19T00:35:19.434Z,4.00
2023-08-19T00:40:20.776Z,4.10
2023-08-19T00:45:22.087Z,3.38
2023-08-19T00:50:24.816Z,3.75
2023-08-19T00:55:26.119Z,3.77
2023-08-19T01:00:29.155Z,3.85
2023-08-19T01:05:49.206Z,3.70
2023-08-19T01:10:59.638Z,4.33
2023-08-19T01:16:06.531Z,3.90
2023-08-19T01:21:08.780Z,4.00
2023-08-19T01:26:10.248Z,3.87
2023-08-19T01:31:11.814Z,3.83
2023-08-19T01:36:32.541Z,3.95
2023-08-19T01:41:34.749Z,3.95
2023-08-19T01:46:36.377Z,4.00
2023-08-19T01:51:37.691Z,4.10
2023-08-19T01:56:39.028Z,3.70
2023-08-19T02:01:40.346Z,3.87
2023-08-19T02:06:41.658Z,3.65
2023-08-19T02:11:43.591Z,4.05
2023-08-19T02:16:44.895Z,3.90
2023-08-19T02:21:46.597Z,3.77
2023-08-19T02:26:47.966Z,4.25
2023-08-19T02:31:49.298Z,4.00
2023-08-19T02:36:50.588Z,4.17
2023-08-19T02:41:51.890Z,3.88
2023-08-19T02:46:53.279Z,3.97
2023-08-19T02:51:54.595Z,3.73
2023-08-19T02:56:55.879Z,4.25
2023-08-19T03:01:57.181Z,3.90
2023-08-19T03:06:59.189Z,3.97
2023-08-19T03:12:00.524Z,4.23
2023-08-19T03:17:01.842Z,3.70
2023-08-19T03:22:03.199Z,4.22
2023-08-19T03:27:04.634Z,4.13
2023-08-19T03:32:06.007Z,3.53
2023-08-19T03:37:07.362Z,4.05
2023-08-19T03:42:08.699Z,3.70
2023-08-19T03:47:11.072Z,3.97
2023-08-19T03:52:12.360Z,3.95
2023-08-19T03:57:13.649Z,3.73
2023-08-19T04:02:14.950Z,4.07
2023-08-19T04:07:16.274Z,3.63
2023-08-19T04:12:17.694Z,3.75
2023-08-19T04:17:19.570Z,3.60
2023-08-19T04:22:20.911Z,3.67
2023-08-19T04:27:23.261Z,3.88
2023-08-19T04:32:24.746Z,3.60
2023-08-19T04:37:26.081Z,4.07
2023-08-19T04:42:27.836Z,3.45
2023-08-19T04:47:29.163Z,3.53
2023-08-19T04:52:32.517Z,4.28
2023-08-19T04:57:34.084Z,3.80
2023-08-19T05:02:35.541Z,3.90
2023-08-19T05:07:36.939Z,3.97
2023-08-19T05:12:38.275Z,3.50
2023-08-19T05:17:40.178Z,3.60
2023-08-19T05:22:41.673Z,3.90
2023-08-19T05:27:43.301Z,4.20
2023-08-19T05:32:44.794Z,4.35
2023-08-19T05:37:46.195Z,3.77
2023-08-19T05:42:47.940Z,4.05
2023-08-19T05:47:49.542Z,4.07
2023-08-19T05:52:50.862Z,4.27
2023-08-19T05:57:52.217Z,4.03
2023-08-19T06:02:53.623Z,3.78
2023-08-19T06:07:55.090Z,3.60
2023-08-19T06:12:56.414Z,4.13
2023-08-19T06:17:57.778Z,4.10
2023-08-19T06:22:59.150Z,3.70
2023-08-19T06:28:00.484Z,3.80
2023-08-19T06:33:01.983Z,3.75
2023-08-19T06:38:15.533Z,4.20
2023-08-19T06:43:17.990Z,3.93
2023-08-19T06:48:19.663Z,4.20
2023-08-19T06:53:21.568Z,3.95
2023-08-19T06:58:26.054Z,4.00
2023-08-19T07:03:34.106Z,4.00
2023-08-19T07:08:38.565Z,3.80
2023-08-19T07:13:40.046Z,4.20
2023-08-19T07:18:42.737Z,4.33
2023-08-19T07:23:48.289Z,4.75
2023-08-19T07:28:50.680Z,4.50
2023-08-19T07:33:52.032Z,4.70
2023-08-19T07:38:53.559Z,5.07
2023-08-19T07:43:54.989Z,5.25
2023-08-19T07:48:56.324Z,4.78
2023-08-19T07:53:57.706Z,5.03
2023-08-19T07:58:58.987Z,5.53
2023-08-19T08:04:00.332Z,5.40
2023-08-19T08:09:01.741Z,5.40
2023-08-19T08:14:03.103Z,5.32
2023-08-19T08:19:04.682Z,5.55
2023-08-19T08:24:06.146Z,5.60
2023-08-19T08:29:07.485Z,5.60
2023-08-19T08:34:08.862Z,6.30
2023-08-19T08:39:10.154Z,5.45
2023-08-19T08:44:12.948Z,6.00
2023-08-19T08:49:14.728Z,6.40
2023-08-19T08:54:16.238Z,5.50
2023-08-19T08:59:17.729Z,5.87
2023-08-19T09:04:20.753Z,5.40
2023-08-19T09:09:23.681Z,6.05
2023-08-19T09:14:48.096Z,6.10
2023-08-19T09:19:49.469Z,5.83
2023-08-19T09:24:51.033Z,5.82
2023-08-19T09:29:52.419Z,6.68
2023-08-19T09:35:03.856Z,5.53
2023-08-19T09:40:09.510Z,6.28
2023-08-19T09:45:16.751Z,5.28
2023-08-19T09:50:22.449Z,5.50
2023-08-19T09:55:25.008Z,5.43
2023-08-19T10:00:26.664Z,5.80
2023-08-19T10:05:28.709Z,5.60
2023-08-19T10:10:30.762Z,5.27
2023-08-19T10:15:33.365Z,5.55
2023-08-19T10:20:35.201Z,5.40
2023-08-19T10:25:36.681Z,5.53
2023-08-19T10:30:38.149Z,5.05
2023-08-19T10:36:00.200Z,5.43
2023-08-19T10:41:03.191Z,5.40
2023-08-19T10:46:05.613Z,5.45
2023-08-19T10:51:07.315Z,5.18
2023-08-19T10:56:13.216Z,5.67
2023-08-19T11:01:14.542Z,5.20
2023-08-19T11:06:15.855Z,5.32
2023-08-19T11:11:17.940Z,5.32
2023-08-19T11:16:19.388Z,5.60
2023-08-19T11:21:20.829Z,4.68
2023-08-19T11:26:22.390Z,4.70
2023-08-19T11:31:24.564Z,4.90
2023-08-19T11:36:26.435Z,5.25
2023-08-19T11:41:27.762Z,5.43
2023-08-19T11:46:29.900Z,5.27
2023-08-19T11:51:31.301Z,5.90
2023-08-19T11:56:48.706Z,5.85
2023-08-19T12:01:50.082Z,5.50
2023-08-19T12:06:51.491Z,5.63
2023-08-19T12:12:01.339Z,5.35
2023-08-19T12:17:02.690Z,5.47
2023-08-19T12:22:05.246Z,4.70
2023-08-19T12:27:07.063Z,4.60
2023-08-19T12:32:08.385Z,5.20
2023-08-19T12:37:09.718Z,4.77
2023-08-19T12:42:11.387Z,4.90
2023-08-19T12:47:12.741Z,5.28
2023-08-19T12:52:14.058Z,5.55
2023-08-19T12:57:15.366Z,5.13
2023-08-19T13:02:16.675Z,5.88
2023-08-19T13:07:17.998Z,6.28
2023-08-19T13:12:19.363Z,5.60
2023-08-19T13:17:21.213Z,5.68
2023-08-19T13:22:23.300Z,5.75
2023-08-19T13:27:24.925Z,7.17
2023-08-19T13:32:26.356Z,6.77
2023-08-19T13:37:27.692Z,5.60
2023-08-19T13:42:28.984Z,6.50
2023-08-19T13:47:30.479Z,5.30
2023-08-19T13:52:35.450Z,5.78
2023-08-19T13:57:37.331Z,6.20
2023-08-19T14:02:42.551Z,6.40
2023-08-19T14:07:44.945Z,6.15
2023-08-19T14:12:47.426Z,6.10
2023-08-19T14:17:49.889Z,5.63
2023-08-19T14:22:51.270Z,6.33
2023-08-19T14:27:53.204Z,6.68
2023-08-19T14:32:54.632Z,6.10
2023-08-19T14:37:56.071Z,6.47
2023-08-19T14:42:59.059Z,6.18
2023-08-19T14:48:00.479Z,6.85
2023-08-19T14:53:01.904Z,6.77
2023-08-19T14:58:03.671Z,6.47
2023-08-19T15:03:05.641Z,6.78
2023-08-19T15:08:08.098Z,5.70
2023-08-19T15:13:09.409Z,6.10
2023-08-19T15:18:10.871Z,6.43
2023-08-19T15:23:12.189Z,5.90
2023-08-19T15:28:13.552Z,5.70
2023-08-19T15:33:14.864Z,5.93
2023-08-19T15:38:16.211Z,6.13
2023-08-19T15:43:17.530Z,6.13
2023-08-19T15:48:18.897Z,6.53
2023-08-19T15:53:20.182Z,6.28
2023-08-19T15:58:21.505Z,6.20
2023-08-19T16:03:22.910Z,6.10
2023-08-19T16:08:24.229Z,7.07
2023-08-19T16:13:25.555Z,7.00
2023-08-19T16:18:27.482Z,5.60
2023-08-19T16:23:29.489Z,5.85
2023-08-19T16:28:30.928Z,6.63
2023-08-19T16:33:33.454Z,6.80
2023-08-19T16:38:36.088Z,7.07
2023-08-19T16:43:37.696Z,6.00
2023-08-19T16:48:38.998Z,6.20
2023-08-19T16:53:40.342Z,6.97
2023-08-19T16:58:41.687Z,6.30
2023-08-19T17:03:43.079Z,7.10
2023-08-19T17:08:44.552Z,6.93
2023-08-19T17:13:46.248Z,6.50
2023-08-19T17:18:47.770Z,7.20
2023-08-19T17:23:49.101Z,6.60
2023-08-19T17:28:50.990Z,6.32
2023-08-19T17:33:53.718Z,6.68
2023-08-19T17:38:55.056Z,6.30
2023-08-19T17:43:56.373Z,7.20
2023-08-19T17:48:58.030Z,6.75
2023-08-19T17:53:59.396Z,6.50
2023-08-19T17:59:03.504Z,6.17
2023-08-19T18:04:05.006Z,7.20
2023-08-19T18:09:06.301Z,7.30
2023-08-19T18:14:08.268Z,7.63
2023-08-19T18:19:13.548Z,6.93
2023-08-19T18:24:14.821Z,6.35
2023-08-19T18:29:16.141Z,6.50
2023-08-19T18:34:17.463Z,7.33
2023-08-19T18:39:18.920Z,7.13
2023-08-19T18:44:20.321Z,7.07
2023-08-19T18:49:21.797Z,6.53
2023-08-19T18:54:23.189Z,7.05
2023-08-19T18:59:24.613Z,7.18
2023-08-19T19:04:25.908Z,7.13
2023-08-19T19:09:30.135Z,6.75
2023-08-19T19:14:31.443Z,7.20
2023-08-19T19:19:32.757Z,7.20
2023-08-19T19:24:34.074Z,7.30
2023-08-19T19:29:35.399Z,6.93
2023-08-19T19:34:36.915Z,6.80
2023-08-19T19:39:39.002Z,7.10
2023-08-19T19:44:40.377Z,7.80
2023-08-19T19:49:41.834Z,7.22
2023-08-19T19:54:43.353Z,7.60
2023-08-19T19:59:44.737Z,7.15
2023-08-19T20:04:46.072Z,7.22
2023-08-19T20:09:47.412Z,7.43
2023-08-19T20:14:48.691Z,7.30
2023-08-19T20:19:50.044Z,6.93
2023-08-19T20:24:51.403Z,7.95
2023-08-19T20:29:52.808Z,7.70
2023-08-19T20:34:54.088Z,7.38
2023-08-19T20:39:55.473Z,7.15
2023-08-19T20:44:56.812Z,8.13
2023-08-19T20:49:58.211Z,8.25
2023-08-19T20:54:59.507Z,8.13
2023-08-19T21:00:00.877Z,7.90
2023-08-19T21:05:02.291Z,7.83
2023-08-19T21:10:04.918Z,8.00
2023-08-19T21:15:06.784Z,8.07
2023-08-19T21:20:08.403Z,7.37
2023-08-19T21:25:09.822Z,8.20
2023-08-19T21:30:11.461Z,8.00
2023-08-19T21:35:12.898Z,7.77
2023-08-19T21:40:14.261Z,8.18
2023-08-19T21:45:15.614Z,8.27
2023-08-19T21:50:17.046Z,8.03
2023-08-19T21:55:18.374Z,8.53
2023-08-19T22:00:19.737Z,8.15
2023-08-19T22:05:21.101Z,8.25
2023-08-19T22:10:22.571Z,8.57
2023-08-19T22:15:23.950Z,8.77
2023-08-19T22:20:28.354Z,8.38
2023-08-19T22:25:30.200Z,8.10
2023-08-19T22:30:31.550Z,8.60
2023-08-19T22:35:32.979Z,8.82
2023-08-19T22:40:34.549Z,8.33
2023-08-19T22:45:35.889Z,8.50
2023-08-19T22:50:37.228Z,8.80
2023-08-19T22:55:41.281Z,9.75
2023-08-19T23:00:42.640Z,8.30
2023-08-19T23:05:44.022Z,8.38
2023-08-19T23:10:45.321Z,8.55
2023-08-19T23:15:46.765Z,8.50
2023-08-19T23:20:48.104Z,8.63
2023-08-19T23:25:49.555Z,9.23
2023-08-19T23:30:50.940Z,8.70
2023-08-19T23:35:53.346Z,8.83
2023-08-19T23:40:54.644Z,8.77
2023-08-19T23:45:55.964Z,9.60
2023-08-19T23:50:59.642Z,8.63
2023-08-19T23:56:01.008Z,8.82
